Latest Weather Observations for Parafield

IDS60901

Issued at 6:55 am CST Thursday 18 September 2014 (issued every 10 minutes, with the page automatically refreshed every 10 minutes)

About weather observations | Map of Adelaide area stations | Latest observations for Adelaide area | Other Formats
Station Details ID: 023013 Name: PARAFIELD AIRPORT Lat: -34.80 Lon: 138.63 Height: 9.5 m
Data from the previous 72 hours. | See also: Recent months at Parafield
Date/Time
CST
Tmp

°C
App
Tmp
°C
Dew
Point
°C
Rel
Hum
%
Delta-T

°C
Wind Press
QNH
hPa
Press
MSL
hPa
Rain
since
9 am
mm
Dir
 
Spd
km/h
Gust
km/h
Spd
kts
Gust
kts
18/06:30am 4.2 2.7 2.9 91 0.5 CALM 0 2 0 1 1026.0 1026.0 0.2
18/06:00am 2.9 0.0 1.7 92 0.5 WSW 6 7 3 4 1025.7 1025.7 0.2
18/05:30am 3.7 2.1 2.4 91 0.5 CALM 0 0 0 0 1025.4 1025.4 0.2
18/05:00am 3.3 1.6 1.7 89 0.6 CALM 0 0 0 0 1025.2 1025.2 0.2
18/04:30am 4.0 2.4 2.2 88 0.7 CALM 0 0 0 0 1025.2 1025.2 0.2
18/04:00am 4.4 1.7 2.4 87 0.8 NNE 6 7 3 4 1025.0 1025.0 0.2
18/03:30am 3.5 0.4 1.5 87 0.8 N 7 9 4 5 1025.1 1025.1 0.2
18/03:00am 4.1 1.3 1.8 85 0.9 NE 6 9 3 5 1025.3 1025.3 0.2
18/02:30am 4.0 0.7 2.2 88 0.7 NE 9 11 5 6 1025.3 1025.3 0.2
18/02:00am 3.7 0.3 1.7 87 0.8 NNE 9 11 5 6 1025.6 1025.6 0.2
18/01:30am 4.2 1.2 2.2 87 0.8 N 7 9 4 5 1025.9 1025.9 0.2
18/01:00am 5.5 2.7 3.0 84 1.0 NE 7 7 4 4 1025.7 1025.7 0.2
18/12:30am 5.5 4.0 3.0 84 1.0 CALM 0 0 0 0 1025.9 1025.9 0.2
18/12:00am 5.2 2.3 2.4 82 1.1 WNW 7 9 4 5 1025.7 1025.7 0.2
 
Date/Time
CST
Tmp

°C
App
Tmp
°C
Dew
Point
°C
Rel
Hum
%
Delta-T

°C
Wind Press
QNH
hPa
Press
MSL
hPa
Rain
since
9 am
mm
Dir
 
Spd
km/h
Gust
km/h
Spd
kts
Gust
kts
17/11:30pm 5.3 2.4 2.7 83 1.1 WNW 7 9 4 5 1025.6 1025.6 0.2
17/11:00pm 5.5 3.9 2.7 82 1.1 WSW 0 0 0 0 1025.5 1025.5 0.2
17/10:30pm 6.2 4.4 3.2 81 1.2 SE 2 7 1 4 1025.4 1025.4 0.2
17/10:00pm 7.1 4.4 2.6 73 1.9 SSE 6 7 3 4 1025.5 1025.5 0.2
17/09:30pm 7.5 4.7 3.0 73 1.9 S 7 9 4 5 1025.5 1025.5 0.2
17/09:00pm 8.1 5.3 3.4 72 2.0 S 7 9 4 5 1025.1 1025.1 0.2
17/08:30pm 8.3 5.2 3.6 72 2.0 S 9 13 5 7 1024.9 1024.9 0.2
17/08:00pm 8.8 5.0 3.8 71 2.2 S 13 15 7 8 1024.5 1024.5 0.2
17/07:30pm 9.6 5.8 3.8 67 2.5 S 13 17 7 9 1024.2 1024.1 0.2
17/07:00pm 9.8 5.8 2.9 62 3.0 SSW 13 15 7 8 1023.8 1023.7 0.2
17/06:30pm 10.4 6.4 3.0 60 3.2 SSW 13 17 7 9 1023.4 1023.3 0.2
17/06:00pm 12.1 7.5 3.6 56 3.8 SSW 17 22 9 12 1023.3 1023.2 0.2
17/05:30pm 13.7 8.6 3.2 49 4.7 SSW 19 24 10 13 1023.0 1022.9 0.2
17/05:00pm 14.6 8.5 2.5 44 5.4 SSW 24 30 13 16 1022.8 1022.7 0.2
17/04:30pm 15.5 10.0 3.9 46 5.3 SW 22 33 12 18 1022.8 1022.7 0.2
17/04:00pm 15.8 9.6 4.5 47 5.3 SW 26 39 14 21 1022.5 1022.4 0.2
17/03:30pm 16.1 10.3 4.5 46 5.4 SW 24 35 13 19 1022.2 1022.1 0.2
17/03:00pm 16.7 11.1 5.3 47 5.4 SW 24 35 13 19 1022.0 1021.9 0.2
17/02:30pm 16.3 10.7 5.3 48 5.2 SW 24 32 13 17 1022.0 1021.9 0.2
17/02:00pm 16.9 10.9 5.5 47 5.5 SW 26 35 14 19 1022.1 1022.0 0.2
17/01:30pm 16.9 11.4 6.1 49 5.2 WSW 24 30 13 16 1022.1 1022.0 0.2
17/01:00pm 17.1 12.0 7.5 53 4.8 SW 24 33 13 18 1022.2 1022.1 0.2
17/12:30pm 16.7 11.0 6.5 51 5.0 SW 26 37 14 20 1022.2 1022.1 0.2
17/12:00pm 16.3 11.0 7.0 54 4.6 SW 24 35 13 19 1022.5 1022.4 0.0
17/11:30am 16.0 10.4 5.3 49 5.1 SW 24 35 13 19 1022.4 1022.3 0.0
17/11:00am 14.0 10.0 8.2 68 2.9 WSW 19 26 10 14 1022.5 1022.4 0.0
17/10:30am 15.1 10.3 7.4 60 3.8 SSW 22 32 12 17 1022.3 1022.2 0.0
17/10:00am 15.1 9.9 7.4 60 3.8 SSW 24 30 13 16 1022.3 1022.2 0.0
17/09:30am 14.7 9.6 7.7 63 3.5 SW 24 32 13 17 1022.2 1022.1 0.0
17/09:00am 13.2 8.9 7.9 70 2.6 SW 20 26 11 14 1022.0 1021.9 0.8
17/08:30am 13.3 12.1 9.4 77 2.0 S 6 11 3 6 1021.5 1021.5 0.8
17/08:00am 12.3 12.4 10.0 86 1.2 CALM 0 6 0 3 1021.4 1021.4 0.8
17/07:30am 10.1 10.0 9.5 96 0.3 CALM 0 4 0 2 1021.0 1021.0 0.8
17/07:00am 8.7 6.9 8.1 96 0.3 NE 7 9 4 5 1020.6 1020.6 0.8
17/06:53am 8.1 5.8 7.5 96 0.3 NE 9 9 5 5 1020.5 1020.5 0.8
17/06:30am 7.7 5.9 7.1 96 0.3 NE 6 7 3 4 1020.2 1020.2 0.8
17/06:19am 7.4 5.5 6.8 96 0.3 NE 6 7 3 4 1020.1 1020.1 0.8
17/06:14am 7.6 5.8 7.0 96 0.3 NE 6 7 3 4 1020.1 1020.1 0.8
17/06:00am 7.2 5.1 6.5 95 0.3 ENE 7 9 4 5 1020.0 1020.0 0.8
17/05:42am 7.9 7.2 7.0 94 0.4 CALM 0 0 0 0 1019.7 1019.7 0.8
17/05:30am 7.9 7.2 7.0 94 0.4 CALM 0 0 0 0 1019.6 1019.6 0.8
17/05:00am 9.0 7.3 7.6 91 0.7 S 6 7 3 4 1019.4 1019.4 0.8
17/04:30am 10.0 7.4 7.9 87 1.0 SW 11 15 6 8 1019.2 1019.2 0.8
17/04:00am 11.4 8.3 9.0 85 1.2 WSW 15 22 8 12 1019.0 1019.0 0.8
17/03:30am 11.5 8.4 7.4 76 2.0 W 13 19 7 10 1018.7 1018.7 0.6
17/03:00am 11.9 8.7 7.0 72 2.3 WSW 13 17 7 9 1018.9 1018.9 0.6
17/02:30am 12.0 8.6 6.1 67 2.8 WSW 13 17 7 9 1019.0 1019.0 0.6
17/02:00am 12.0 7.7 5.2 63 3.1 SW 17 24 9 13 1019.0 1019.0 0.6
17/01:30am 11.6 8.1 5.3 65 2.9 WSW 13 19 7 10 1019.3 1019.3 0.6
17/01:00am 12.0 8.4 5.0 62 3.2 WSW 13 19 7 10 1019.5 1019.5 0.6
17/12:30am 12.0 7.9 4.5 60 3.4 WSW 15 20 8 11 1019.7 1019.7 0.6
17/12:00am 12.2 7.8 4.9 61 3.3 WSW 17 24 9 13 1019.8 1019.8 0.6
 
Date/Time
CST
Tmp

°C
App
Tmp
°C
Dew
Point
°C
Rel
Hum
%
Delta-T

°C
Wind Press
QNH
hPa
Press
MSL
hPa
Rain
since
9 am
mm
Dir
 
Spd
km/h
Gust
km/h
Spd
kts
Gust
kts
16/11:30pm 12.3 8.1 5.5 63 3.2 WSW 17 28 9 15 1019.8 1019.8 0.6
16/11:00pm 11.8 8.4 6.1 68 2.7 WSW 13 20 7 11 1019.8 1019.8 0.6
16/10:30pm 12.4 7.7 6.0 65 3.0 SW 20 26 11 14 1019.7 1019.7 0.6
16/10:00pm 12.5 8.7 7.4 71 2.5 WSW 17 26 9 14 1019.6 1019.6 0.6
16/09:30pm 12.0 7.4 6.7 70 2.5 WSW 20 32 11 17 1019.4 1019.4 0.6
16/09:00pm 12.6 8.4 7.5 71 2.5 W 19 28 10 15 1019.3 1019.3 0.6
16/08:30pm 12.3 7.9 7.4 72 2.4 W 20 28 11 15 1019.0 1019.0 0.6
16/08:00pm 12.3 8.1 8.2 76 2.0 WSW 20 28 11 15 1018.8 1018.8 0.6
16/07:30pm 12.7 8.6 8.6 76 2.0 WSW 20 30 11 16 1018.7 1018.7 0.6
16/07:00pm 12.9 9.1 9.2 78 1.9 WSW 19 24 10 13 1018.2 1018.2 0.6
16/06:30pm 13.0 9.5 8.7 75 2.1 WSW 17 24 9 13 1017.9 1017.9 0.6
16/06:00pm 12.7 10.3 10.2 85 1.3 SW 13 19 7 10 1017.7 1017.7 0.6
16/05:30pm 12.9 12.1 11.1 89 0.9 W 6 9 3 5 1017.6 1017.6 0.6
16/05:00pm 12.4 9.8 10.6 89 0.9 W 15 22 8 12 1017.5 1017.5 0.6
16/04:30pm 12.7 10.0 10.2 85 1.3 W 15 22 8 12 1017.5 1017.5 0.2
16/04:00pm 13.2 10.7 9.8 80 1.7 SW 13 17 7 9 1017.4 1017.4 0.0
16/03:30pm 14.9 9.8 7.5 61 3.7 W 24 33 13 18 1016.9 1016.9 0.0
16/03:00pm 16.1 12.1 6.5 53 4.7 W 17 24 9 13 1016.7 1016.7 0.0
16/02:30pm 16.8 12.7 8.8 59 4.1 W 20 26 11 14 1016.7 1016.7 0.0
16/02:00pm 16.8 11.4 6.3 50 5.1 WSW 24 32 13 17 1016.9 1016.9 0.0
16/01:30pm 17.8 12.6 5.7 45 5.9 WSW 22 30 12 16 1017.0 1017.0 0.0
16/01:00pm 17.8 13.5 7.8 52 5.1 W 20 30 11 16 1017.3 1017.3 0.0
16/12:30pm 17.7 13.2 6.9 49 5.4 WSW 20 33 11 18 1017.5 1017.5 0.0
16/12:00pm 17.0 12.7 6.8 51 5.0 W 19 24 10 13 1017.8 1017.8 0.0
16/11:30am 17.2 12.4 7.3 52 4.9 W 22 32 12 17 1018.1 1018.1 0.0
16/11:00am 16.7 12.3 8.9 60 4.0 W 22 32 12 17 1018.4 1018.4 0.0
16/10:30am 16.5 11.8 9.2 62 3.8 WSW 24 33 13 18 1018.4 1018.4 0.0
16/10:00am 16.2 11.6 8.2 59 4.0 W 22 30 12 16 1018.5 1018.5 0.0
16/09:30am 16.0 11.8 9.7 66 3.3 WSW 22 30 12 16 1018.5 1018.5 0.0
16/09:00am 15.3 11.9 9.2 67 3.1 SW 17 22 9 12 1018.6 1018.6 0.2
16/08:30am 14.5 11.1 10.5 77 2.1 SW 19 24 10 13 1018.8 1018.8 0.2
16/08:00am 14.0 10.5 10.2 78 2.0 SW 19 26 10 14 1018.6 1018.6 0.2
16/07:30am 13.6 10.9 10.2 80 1.8 SW 15 20 8 11 1018.3 1018.3 0.2
16/07:00am 12.7 10.3 9.9 83 1.4 SW 13 19 7 10 1018.1 1018.1 0.2
16/06:30am 12.2 9.0 9.8 85 1.2 SW 17 24 9 13 1017.9 1017.9 0.2
16/06:00am 12.8 9.3 10.2 84 1.3 WSW 19 24 10 13 1017.7 1017.7 0.2
16/05:45am 12.8 9.3 10.3 85 1.3 SW 19 24 10 13 1017.6 1017.6 0.2
16/05:31am 12.6 10.3 10.3 86 1.2 SW 13 19 7 10 1017.6 1017.6 0.2
16/05:30am 12.6 10.3 10.3 86 1.2 SW 13 19 7 10 1017.6 1017.6 0.2
16/05:00am 12.3 9.2 10.2 87 1.1 SW 17 20 9 11 1017.4 1017.4 0.2
16/04:30am 12.7 10.0 10.4 86 1.2 WSW 15 22 8 12 1017.0 1017.0 0.2
16/04:00am 12.5 10.2 10.6 88 1.0 SW 13 20 7 11 1016.8 1016.8 0.2
16/03:30am 12.4 10.1 10.5 88 1.0 SW 13 17 7 9 1016.6 1016.6 0.2
16/03:00am 12.7 9.7 10.6 87 1.1 WSW 17 24 9 13 1016.5 1016.5 0.2
16/02:52am 12.8 9.5 10.9 88 1.0 WSW 19 24 10 13 1016.5 1016.5 0.2
16/02:30am 12.4 11.0 10.8 90 0.8 SSW 9 15 5 8 1016.7 1016.7 0.2
16/02:27am 12.4 10.6 10.8 90 0.8 SSW 11 15 6 8 1016.7 1016.7 0.2
16/02:00am 12.1 9.4 10.2 88 1.0 SW 15 19 8 10 1016.9 1016.9 0.0
16/01:30am 11.9 9.4 9.8 87 1.1 SW 13 17 7 9 1017.1 1017.1 0.0
16/01:00am 12.2 9.0 10.1 87 1.1 SW 17 20 9 11 1017.2 1017.2 0.0
16/12:30am 12.6 9.1 10.3 86 1.2 WSW 19 24 10 13 1017.3 1017.3 0.0
16/12:00am 12.8 9.3 10.3 85 1.3 WSW 19 28 10 15 1017.3 1017.3 0.0
 
Date/Time
CST
Tmp

°C
App
Tmp
°C
Dew
Point
°C
Rel
Hum
%
Delta-T

°C
Wind Press
QNH
hPa
Press
MSL
hPa
Rain
since
9 am
mm
Dir
 
Spd
km/h
Gust
km/h
Spd
kts
Gust
kts
15/11:30pm 12.5 9.2 9.7 83 1.4 SW 17 24 9 13 1017.2 1017.2 0.0
15/11:00pm 13.0 9.1 9.6 80 1.7 SW 20 30 11 16 1017.1 1017.1 0.0
15/10:54pm 13.2 9.4 9.8 80 1.7 SW 20 30 11 16 1017.0 1017.0 0.0
15/10:30pm 13.5 10.5 10.5 82 1.6 SW 17 22 9 12 1017.1 1017.1 0.0
15/10:29pm 13.5 10.1 10.5 82 1.6 SW 19 24 10 13 1017.1 1017.1 0.0
15/10:07pm 12.8 10.1 10.2 84 1.3 SSW 15 22 8 12 1017.2 1017.2 0.0
15/10:00pm 12.7 9.9 9.9 83 1.4 SSW 15 22 8 12 1017.2 1017.2 0.0
15/09:30pm 13.1 10.3 10.1 82 1.5 SSW 15 20 8 11 1017.2 1017.2 0.0
15/09:27pm 13.2 10.4 10.0 81 1.6 SSW 15 20 8 11 1017.2 1017.2 0.0
15/09:00pm 13.3 9.0 9.4 77 2.0 SSW 22 35 12 19 1017.2 1017.2 0.0
15/08:30pm 13.5 9.3 9.9 79 1.9 SSW 22 32 12 17 1017.0 1017.0 0.0
15/08:00pm 13.3 10.3 10.5 83 1.5 SSW 17 22 9 12 1016.7 1016.7 0.0
15/07:30pm 13.5 9.1 10.5 82 1.6 SSW 24 37 13 20 1016.3 1016.3 0.0
15/07:00pm 14.0 8.6 9.6 75 2.3 SW 28 43 15 23 1015.8 1015.8 0.0
15/06:30pm 14.0 8.7 9.8 76 2.2 SW 28 35 15 19 1015.5 1015.5 0.0
15/06:00pm 14.1 8.3 9.5 74 2.4 SW 30 41 16 22 1015.1 1015.1 0.0
15/05:30pm 14.8 8.8 10.0 73 2.5 SW 32 48 17 26 1014.7 1014.7 0.0
15/05:00pm 14.8 8.8 10.2 74 2.4 SW 32 43 17 23 1014.7 1014.7 0.0
15/04:30pm 15.0 8.9 10.4 74 2.4 SW 33 46 18 25 1014.3 1014.3 0.0
15/04:00pm 15.6 9.8 10.8 73 2.5 SW 32 46 17 25 1013.9 1013.9 0.0
15/03:30pm 15.8 9.4 10.6 71 2.8 SW 35 48 19 26 1013.7 1013.7 0.0
15/03:00pm 16.6 10.6 10.7 68 3.1 SW 33 46 18 25 1013.3 1013.3 0.0
15/02:30pm 16.3 9.8 10.4 68 3.1 SSW 35 46 19 25 1013.1 1013.1 0.0
15/02:03pm 16.7 9.7 10.1 65 3.5 SW 37 56 20 30 1012.9 1012.9 0.0
15/02:00pm 16.7 9.3 9.9 64 3.6 SW 39 56 21 30 1012.8 1012.8 0.0
15/01:43pm 18.8 10.6 9.8 56 4.8 SSW 43 61 23 33 1012.4 1012.4 0.0
15/01:30pm 17.9 9.5 9.5 58 4.4 SSW 44 61 24 33 1012.1 1012.1 0.0
15/01:03pm 17.5 10.2 8.9 57 4.5 SSW 37 59 20 32 1011.6 1011.6 0.0
15/01:00pm 18.0 10.8 9.1 56 4.6 SSW 37 48 20 26 1011.6 1011.6 0.0
15/12:44pm 17.9 10.9 8.5 54 4.8 SSW 35 56 19 30 1011.3 1011.3 0.0
15/12:30pm 18.1 10.7 9.7 58 4.4 SSW 39 50 21 27 1011.3 1011.3 0.0
15/12:00pm 17.5 10.5 9.9 61 4.0 SW 37 54 20 29 1011.1 1011.1 0.0
15/11:55am 17.7 11.0 9.6 59 4.3 SW 35 54 19 29 1011.0 1011.0 0.0
15/11:30am 17.4 10.3 10.8 65 3.5 SW 39 54 21 29 1010.9 1010.9 0.0
15/11:22am 17.4 10.8 11.2 67 3.4 SW 37 54 20 29 1011.0 1011.0 0.0
15/11:00am 16.4 10.6 11.6 73 2.6 WSW 33 46 18 25 1010.8 1010.8 0.0
15/10:30am 15.7 10.5 11.7 77 2.2 WSW 30 43 16 23 1010.6 1010.6 0.0
15/10:12am 15.6 10.1 12.0 79 2.0 WSW 32 50 17 27 1010.5 1010.5 0.0
15/10:00am 15.0 9.3 11.8 81 1.7 W 33 44 18 24 1010.3 1010.3 0.0
15/09:41am 15.1 10.3 11.5 79 1.9 W 28 43 15 23 1010.4 1010.4 0.0
15/09:30am 15.2 9.5 11.2 77 2.1 W 32 43 17 23 1010.4 1010.4 0.0
15/09:18am 16.6 12.1 11.5 72 2.8 W 26 35 14 19 1010.3 1010.3 0.0
15/09:00am 15.3 10.8 11.5 78 2.0 W 26 39 14 21 1010.3 1010.3 0.0
15/08:30am 15.0 11.9 12.1 83 1.6 WNW 20 30 11 16 1010.3 1010.3 0.0
15/08:25am 14.8 11.2 11.9 83 1.6 WNW 22 33 12 18 1010.3 1010.3 0.0
15/08:22am 14.8 11.2 11.8 82 1.6 WNW 22 33 12 18 1010.3 1010.3 0.0
15/08:00am 14.8 11.2 11.8 82 1.6 WNW 22 32 12 17 1010.3 1010.3 0.0
15/07:30am 13.3 10.2 10.3 82 1.6 N 17 20 9 11 1010.2 1010.2 0.0
15/07:00am 12.9 9.3 9.9 82 1.5 N 19 24 10 13 1010.2 1010.2 0.0

Latest Capital City Observations: Canberra | Sydney | Melbourne | Brisbane | Adelaide | Perth | Hobart | Darwin

Other Formats:

Comma delimited format used in spreadsheet applications
http://www.bom.gov.au/fwo/IDS60901/IDS60901.95677.axf

JavaScript Object Notation format (JSON) in row-major order
http://www.bom.gov.au/fwo/IDS60901/IDS60901.95677.json